Time;durP1;ratioP1;P1;durP2;ratioP2;P2;SDS_P1;SDS_P2;PMS_P1;PMS_P2;Temp;Humidity;BMP_temperature;BMP_pressure;BME280_temperature;BME280_humidity;BME280_pressure;Samples;Min_cycle;Max_cycle;Signal;HPM_P1;HPM_P2
2023/05/31 00:00:58;;;;;;;1.15;0.82;;;;;;;;;;5015450;28;59483;-64
2023/05/31 00:03:23;;;;;;;1.02;0.93;;;;;;;;;;5016687;28;59214;-64
2023/05/31 00:05:48;;;;;;;0.98;0.73;;;;;;;;;;5015888;28;59519;-65
2023/05/31 00:08:13;;;;;;;0.70;0.70;;;;;;;;;;5015489;28;58984;-64
2023/05/31 00:10:39;;;;;;;0.70;0.63;;;;;;;;;;5021707;28;59261;-64
2023/05/31 00:13:04;;;;;;;0.70;0.70;;;;;;;;;;5015473;28;59999;-64
2023/05/31 00:15:29;;;;;;;1.10;0.60;;;;;;;;;;5020933;28;59303;-65
2023/05/31 00:17:54;;;;;;;1.90;0.90;;;;;;;;;;5020110;28;59503;-64
2023/05/31 00:20:20;;;;;;;1.48;0.90;;;;;;;;;;5015446;28;60000;-64
2023/05/31 00:22:45;;;;;;;0.80;0.70;;;;;;;;;;5015264;28;59331;-59
2023/05/31 00:25:10;;;;;;;0.75;0.75;;;;;;;;;;5018488;28;59233;-63
2023/05/31 00:27:35;;;;;;;0.77;0.70;;;;;;;;;;5019122;28;59313;-63
2023/05/31 00:30:00;;;;;;;0.93;0.80;;;;;;;;;;5020083;28;58838;-65
2023/05/31 00:32:25;;;;;;;1.43;1.20;;;;;;;;;;5025039;28;59674;-64
2023/05/31 00:34:51;;;;;;;0.90;0.90;;;;;;;;;;5018786;28;58592;-64
2023/05/31 00:37:16;;;;;;;1.70;0.70;;;;;;;;;;5022139;28;59109;-64
2023/05/31 00:39:41;;;;;;;0.50;0.40;;;;;;;;;;5020360;28;59623;-65
2023/05/31 00:42:06;;;;;;;1.70;0.87;;;;;;;;;;5021275;28;59283;-65
2023/05/31 00:44:32;;;;;;;0.93;0.77;;;;;;;;;;5013157;28;59560;-64
2023/05/31 00:46:57;;;;;;;0.60;0.60;;;;;;;;;;5016453;28;59072;-64
2023/05/31 00:49:22;;;;;;;1.20;1.10;;;;;;;;;;5021144;28;59588;-63
2023/05/31 00:51:47;;;;;;;0.70;0.70;;;;;;;;;;5020463;28;59338;-64
2023/05/31 00:54:12;;;;;;;0.80;0.60;;;;;;;;;;5019418;28;59574;-64
2023/05/31 00:56:38;;;;;;;1.90;1.17;;;;;;;;;;5020461;28;59241;-65
2023/05/31 00:59:03;;;;;;;1.70;1.10;;;;;;;;;;5014400;28;59866;-64
2023/05/31 01:01:32;;;;;;;0.95;0.93;;;;;;;;;;5020572;28;59486;-64
2023/05/31 01:03:58;;;;;;;0.73;0.60;;;;;;;;;;5019669;28;59259;-64
2023/05/31 01:06:23;;;;;;;0.60;0.60;;;;;;;;;;5020013;28;59552;-64
2023/05/31 01:08:49;;;;;;;0.70;0.53;;;;;;;;;;5022002;28;58703;-64
2023/05/31 01:11:33;;;;;;;0.47;0.45;;;;;;;;;;5012482;28;59336;-64
2023/05/31 01:14:09;;;;;;;1.08;0.77;;;;;;;;;;5021004;28;59295;-64
2023/05/31 01:16:38;;;;;;;1.88;0.47;;;;;;;;;;5020166;28;59229;-64
2023/05/31 01:19:06;;;;;;;1.00;0.90;;;;;;;;;;5022727;28;61776;-64
2023/05/31 01:21:51;;;;;;;1.75;0.50;;;;;;;;;;5022350;28;60951;-65
2023/05/31 01:24:16;;;;;;;1.00;0.77;;;;;;;;;;5016644;28;59158;-64
2023/05/31 01:26:49;;;;;;;1.40;1.00;;;;;;;;;;5016163;28;59005;-64
2023/05/31 01:29:18;;;;;;;0.73;0.70;;;;;;;;;;5013338;28;59384;-64
2023/05/31 01:31:45;;;;;;;1.02;0.70;;;;;;;;;;5023575;28;59299;-62
2023/05/31 01:34:11;;;;;;;0.88;0.88;;;;;;;;;;5023171;28;59265;-64
2023/05/31 01:36:36;;;;;;;0.82;0.60;;;;;;;;;;5019185;28;59230;-63
2023/05/31 01:39:03;;;;;;;0.65;0.50;;;;;;;;;;5017679;28;59203;-64
2023/05/31 01:41:28;;;;;;;1.25;1.15;;;;;;;;;;5015823;28;59222;-63
2023/05/31 01:43:53;;;;;;;0.70;0.70;;;;;;;;;;5019716;28;59235;-65
2023/05/31 01:46:19;;;;;;;0.60;0.50;;;;;;;;;;5020984;28;59173;-64
2023/05/31 01:48:46;;;;;;;0.90;0.70;;;;;;;;;;5019941;28;58610;-65
2023/05/31 01:51:11;;;;;;;0.63;0.60;;;;;;;;;;5021075;28;59497;-61
2023/05/31 01:53:36;;;;;;;1.30;1.05;;;;;;;;;;5019676;28;59289;-64
2023/05/31 01:56:02;;;;;;;0.60;0.60;;;;;;;;;;5015448;28;59559;-64
2023/05/31 01:58:29;;;;;;;0.68;0.68;;;;;;;;;;5018979;28;59327;-65
2023/05/31 02:00:55;;;;;;;1.05;0.95;;;;;;;;;;5018452;28;59370;-65
2023/05/31 02:03:20;;;;;;;0.75;0.68;;;;;;;;;;5016863;28;59160;-63
2023/05/31 02:05:58;;;;;;;0.80;0.80;;;;;;;;;;5017928;28;60520;-65
2023/05/31 02:08:23;;;;;;;;;;;;;;;;;;5017794;28;59616;-64
2023/05/31 02:10:48;;;;;;;0.80;0.80;;;;;;;;;;5021912;28;59200;-65
2023/05/31 02:13:13;;;;;;;0.73;0.60;;;;;;;;;;5020048;28;59345;-64
2023/05/31 02:15:41;;;;;;;0.90;0.80;;;;;;;;;;5015243;28;59017;-62
2023/05/31 02:18:06;;;;;;;0.60;0.60;;;;;;;;;;5011115;28;61736;-64
2023/05/31 02:20:31;;;;;;;1.53;0.73;;;;;;;;;;5012173;28;59393;-64
2023/05/31 02:22:56;;;;;;;0.95;0.90;;;;;;;;;;5019470;28;58766;-64
2023/05/31 02:25:21;;;;;;;0.55;0.55;;;;;;;;;;5013187;28;59664;-64
2023/05/31 02:27:46;;;;;;;1.80;0.73;;;;;;;;;;5022729;28;60606;-64
2023/05/31 02:30:12;;;;;;;1.05;0.95;;;;;;;;;;5012493;28;59134;-64
2023/05/31 02:32:37;;;;;;;0.70;0.60;;;;;;;;;;5016816;28;59215;-64
2023/05/31 02:35:06;;;;;;;0.70;0.70;;;;;;;;;;5016488;28;59452;-64
2023/05/31 02:37:32;;;;;;;0.73;0.63;;;;;;;;;;5014723;28;59236;-64
2023/05/31 02:39:57;;;;;;;1.42;0.70;;;;;;;;;;5017766;28;59632;-64
2023/05/31 02:42:22;;;;;;;0.90;0.70;;;;;;;;;;5016544;28;59394;-64
2023/05/31 02:44:47;;;;;;;0.65;0.60;;;;;;;;;;5013076;28;61713;-63
2023/05/31 02:47:13;;;;;;;0.93;0.90;;;;;;;;;;5016385;28;59355;-64
2023/05/31 02:49:38;;;;;;;1.02;0.60;;;;;;;;;;5014155;28;59105;-65
2023/05/31 02:52:03;;;;;;;1.17;1.08;;;;;;;;;;5014527;28;59232;-64
2023/05/31 02:54:29;;;;;;;0.57;0.57;;;;;;;;;;5018360;28;59213;-65
2023/05/31 02:56:54;;;;;;;1.03;0.90;;;;;;;;;;5015713;28;59434;-65
2023/05/31 02:59:19;;;;;;;0.75;0.75;;;;;;;;;;5016867;28;59207;-64
2023/05/31 03:01:44;;;;;;;0.77;0.73;;;;;;;;;;5018523;28;59383;-64
2023/05/31 03:04:09;;;;;;;0.80;0.70;;;;;;;;;;5017784;28;59197;-64
2023/05/31 03:06:34;;;;;;;1.40;0.83;;;;;;;;;;5020102;28;59563;-64
2023/05/31 03:08:59;;;;;;;0.70;0.70;;;;;;;;;;5015913;28;59234;-64
2023/05/31 03:11:25;;;;;;;0.60;0.60;;;;;;;;;;5020755;28;59171;-64
2023/05/31 03:13:50;;;;;;;1.48;0.85;;;;;;;;;;5012885;28;59592;-64
2023/05/31 03:16:16;;;;;;;1.00;1.00;;;;;;;;;;5018377;28;59540;-64
2023/05/31 03:18:42;;;;;;;1.10;0.98;;;;;;;;;;5014619;28;59353;-65
2023/05/31 03:21:07;;;;;;;0.80;0.60;;;;;;;;;;5021109;28;59155;-65
2023/05/31 03:23:32;;;;;;;0.85;0.57;;;;;;;;;;5015513;28;60715;-64
2023/05/31 03:25:57;;;;;;;0.73;0.70;;;;;;;;;;5013723;28;59561;-65
2023/05/31 03:28:22;;;;;;;0.83;0.83;;;;;;;;;;5014134;28;59232;-62
2023/05/31 03:30:47;;;;;;;0.60;0.60;;;;;;;;;;5016701;28;60725;-65
2023/05/31 03:33:12;;;;;;;0.90;0.90;;;;;;;;;;5016785;28;59392;-65
2023/05/31 03:35:38;;;;;;;0.47;0.40;;;;;;;;;;5020257;28;59507;-65
2023/05/31 03:38:03;;;;;;;0.87;0.43;;;;;;;;;;5021787;28;60059;-63
2023/05/31 03:40:28;;;;;;;0.50;0.50;;;;;;;;;;5015672;28;59873;-63
2023/05/31 03:42:53;;;;;;;0.50;0.50;;;;;;;;;;5018028;28;61852;-65
2023/05/31 03:45:18;;;;;;;0.53;0.53;;;;;;;;;;5019722;28;59359;-64
2023/05/31 03:47:43;;;;;;;0.60;0.57;;;;;;;;;;5015529;28;59377;-64
2023/05/31 03:50:10;;;;;;;0.60;0.60;;;;;;;;;;5022216;28;59255;-65
2023/05/31 03:52:37;;;;;;;0.43;0.43;;;;;;;;;;5017313;28;59137;-64
2023/05/31 03:55:03;;;;;;;0.38;0.38;;;;;;;;;;5019235;28;59503;-63
2023/05/31 03:57:28;;;;;;;0.70;0.70;;;;;;;;;;5015498;28;59787;-63
2023/05/31 03:59:53;;;;;;;0.40;0.40;;;;;;;;;;5016025;28;59588;-64
2023/05/31 04:02:18;;;;;;;0.40;0.40;;;;;;;;;;5011486;28;61034;-65
2023/05/31 04:04:43;;;;;;;0.97;0.90;;;;;;;;;;5019216;28;59218;-64
2023/05/31 04:07:09;;;;;;;0.35;0.35;;;;;;;;;;5014043;28;59281;-65
2023/05/31 04:09:34;;;;;;;0.65;0.52;;;;;;;;;;5023159;28;59531;-63
2023/05/31 04:11:59;;;;;;;0.80;0.70;;;;;;;;;;5018090;28;59548;-65
2023/05/31 04:14:24;;;;;;;0.60;0.60;;;;;;;;;;5014559;28;58493;-64
2023/05/31 04:16:49;;;;;;;0.93;0.80;;;;;;;;;;5015452;28;59814;-65
2023/05/31 04:19:14;;;;;;;1.00;0.87;;;;;;;;;;5017312;28;59661;-64
2023/05/31 04:21:40;;;;;;;0.88;0.63;;;;;;;;;;5023310;28;59659;-65
2023/05/31 04:24:05;;;;;;;1.17;0.97;;;;;;;;;;5019151;28;59475;-64
2023/05/31 04:26:32;;;;;;;0.50;0.50;;;;;;;;;;5016475;28;59334;-65
2023/05/31 04:28:57;;;;;;;0.57;0.57;;;;;;;;;;5016991;28;61099;-65
2023/05/31 04:31:24;;;;;;;1.95;0.55;;;;;;;;;;5013824;28;59300;-64
2023/05/31 04:33:49;;;;;;;0.40;0.40;;;;;;;;;;5015733;28;59284;-64
2023/05/31 04:36:14;;;;;;;0.77;0.77;;;;;;;;;;5016140;28;59201;-64
2023/05/31 04:38:39;;;;;;;0.75;0.75;;;;;;;;;;5020224;28;59848;-64
2023/05/31 04:41:05;;;;;;;1.53;1.00;;;;;;;;;;5013593;28;59219;-64
2023/05/31 04:43:31;;;;;;;5.85;1.58;;;;;;;;;;5012154;28;59167;-65
2023/05/31 04:46:00;;;;;;;1.58;1.40;;;;;;;;;;5015506;28;59218;-66
2023/05/31 04:48:26;;;;;;;1.25;1.15;;;;;;;;;;5020002;28;59378;-64
2023/05/31 04:50:51;;;;;;;1.50;0.93;;;;;;;;;;5018704;28;59346;-59
2023/05/31 04:53:16;;;;;;;1.47;1.17;;;;;;;;;;5015746;28;59602;-65
2023/05/31 04:55:42;;;;;;;3.60;1.40;;;;;;;;;;5018853;28;59763;-65
2023/05/31 04:58:10;;;;;;;4.70;1.40;;;;;;;;;;5017258;28;59335;-65
2023/05/31 05:00:36;;;;;;;;;;;;;;;;;;5017821;28;59298;-65
2023/05/31 05:03:02;;;;;;;3.75;1.38;;;;;;;;;;5016773;28;60548;-64
2023/05/31 05:05:27;;;;;;;1.80;1.30;;;;;;;;;;5022753;28;59238;-66
2023/05/31 05:07:52;;;;;;;1.70;1.60;;;;;;;;;;5024135;28;59672;-65
2023/05/31 05:10:17;;;;;;;4.60;1.50;;;;;;;;;;5021832;28;59816;-65
2023/05/31 05:12:43;;;;;;;2.80;1.57;;;;;;;;;;5022774;28;59836;-65
2023/05/31 05:15:09;;;;;;;5.30;1.30;;;;;;;;;;5020685;28;59372;-65
2023/05/31 05:17:35;;;;;;;2.90;1.13;;;;;;;;;;5023204;28;59856;-65
2023/05/31 05:20:00;;;;;;;2.73;1.03;;;;;;;;;;5022958;28;59487;-65
2023/05/31 05:22:25;;;;;;;1.83;1.10;;;;;;;;;;5020614;28;59456;-65
2023/05/31 05:24:50;;;;;;;2.90;1.43;;;;;;;;;;5017381;28;59271;-65
2023/05/31 05:27:16;;;;;;;2.88;1.73;;;;;;;;;;5022568;28;59965;-65
2023/05/31 05:29:41;;;;;;;4.03;1.20;;;;;;;;;;5024644;28;59399;-65
2023/05/31 05:32:06;;;;;;;5.37;1.10;;;;;;;;;;5023931;28;59651;-64
2023/05/31 05:34:32;;;;;;;1.77;1.40;;;;;;;;;;5018109;28;58999;-64
2023/05/31 05:36:57;;;;;;;2.05;1.40;;;;;;;;;;5024750;28;59407;-65
2023/05/31 05:39:23;;;;;;;2.65;1.50;;;;;;;;;;5024451;28;59100;-65
2023/05/31 05:41:48;;;;;;;1.55;1.02;;;;;;;;;;5022977;28;60695;-65
2023/05/31 05:44:13;;;;;;;3.80;1.57;;;;;;;;;;5024946;28;59491;-65
2023/05/31 05:46:38;;;;;;;1.97;1.27;;;;;;;;;;5020555;28;59337;-65
2023/05/31 05:49:03;;;;;;;2.35;1.30;;;;;;;;;;5023884;28;59337;-64
2023/05/31 05:51:28;;;;;;;3.23;1.60;;;;;;;;;;5023781;28;59175;-65
2023/05/31 05:53:53;;;;;;;4.78;1.23;;;;;;;;;;5021379;28;59496;-66
2023/05/31 05:56:19;;;;;;;2.78;1.23;;;;;;;;;;5015724;28;59636;-65
2023/05/31 05:58:46;;;;;;;1.80;1.43;;;;;;;;;;5024960;28;59114;-63
2023/05/31 06:01:12;;;;;;;2.70;1.77;;;;;;;;;;5024956;28;59227;-62
2023/05/31 06:03:38;;;;;;;3.58;1.50;;;;;;;;;;5021990;28;62575;-65
2023/05/31 06:06:03;;;;;;;4.55;1.23;;;;;;;;;;5018814;28;59541;-64
2023/05/31 06:08:28;;;;;;;3.88;1.20;;;;;;;;;;5018738;28;60497;-65
2023/05/31 06:10:53;;;;;;;2.38;1.60;;;;;;;;;;5022867;28;60334;-65
2023/05/31 06:13:19;;;;;;;2.30;1.30;;;;;;;;;;5024461;28;59179;-65
2023/05/31 06:15:44;;;;;;;2.80;1.10;;;;;;;;;;5024005;28;59246;-65
2023/05/31 06:18:10;;;;;;;3.53;2.03;;;;;;;;;;5019272;28;59338;-65
2023/05/31 06:20:35;;;;;;;2.55;1.40;;;;;;;;;;5015634;28;59651;-65
2023/05/31 06:23:00;;;;;;;1.65;1.20;;;;;;;;;;5017985;28;59808;-64
2023/05/31 06:25:26;;;;;;;3.20;1.45;;;;;;;;;;5015224;28;59081;-63
2023/05/31 06:27:51;;;;;;;1.65;1.33;;;;;;;;;;5022324;28;59442;-65
2023/05/31 06:30:16;;;;;;;2.90;1.57;;;;;;;;;;5019117;28;59535;-64
2023/05/31 06:32:41;;;;;;;2.20;1.90;;;;;;;;;;5014591;28;59493;-65
2023/05/31 06:35:07;;;;;;;5.57;1.37;;;;;;;;;;5015838;28;59543;-65
2023/05/31 06:37:32;;;;;;;1.02;0.70;;;;;;;;;;5019659;28;59258;-65
2023/05/31 06:39:57;;;;;;;2.22;1.38;;;;;;;;;;5021368;28;59713;-64
2023/05/31 06:42:23;;;;;;;2.43;1.47;;;;;;;;;;5018504;28;59278;-65
2023/05/31 06:44:48;;;;;;;2.25;1.33;;;;;;;;;;5016821;28;59467;-65
2023/05/31 06:47:13;;;;;;;2.03;0.97;;;;;;;;;;5017597;28;59320;-65
2023/05/31 06:49:39;;;;;;;2.00;1.63;;;;;;;;;;5016801;28;59183;-65
2023/05/31 06:52:04;;;;;;;5.07;1.40;;;;;;;;;;5020671;28;59430;-64
2023/05/31 06:54:30;;;;;;;3.97;2.03;;;;;;;;;;5013806;27;59129;-65
2023/05/31 06:56:56;;;;;;;2.70;1.08;;;;;;;;;;5012908;27;59198;-65
2023/05/31 06:59:21;;;;;;;1.80;1.70;;;;;;;;;;5016698;28;59662;-65
2023/05/31 07:01:46;;;;;;;2.30;1.23;;;;;;;;;;5014661;27;58988;-65
2023/05/31 07:04:12;;;;;;;1.50;1.05;;;;;;;;;;5013618;28;59530;-63
2023/05/31 07:06:38;;;;;;;1.90;1.23;;;;;;;;;;5019899;28;58393;-65
2023/05/31 07:09:04;;;;;;;2.23;1.43;;;;;;;;;;5019389;28;59059;-65
2023/05/31 07:11:29;;;;;;;2.83;1.00;;;;;;;;;;5015809;28;58886;-66
2023/05/31 07:13:54;;;;;;;1.57;1.17;;;;;;;;;;5012382;28;59249;-65
2023/05/31 07:16:19;;;;;;;1.40;1.07;;;;;;;;;;5019293;28;59776;-65
2023/05/31 07:18:46;;;;;;;2.50;0.97;;;;;;;;;;5017257;28;59210;-66
2023/05/31 07:21:11;;;;;;;1.40;0.90;;;;;;;;;;5017445;27;59456;-65
2023/05/31 07:23:36;;;;;;;4.43;1.55;;;;;;;;;;5015465;28;59507;-65
2023/05/31 07:26:02;;;;;;;0.90;0.85;;;;;;;;;;5019300;28;59128;-65
2023/05/31 07:28:27;;;;;;;1.43;1.33;;;;;;;;;;5013989;28;58790;-65
2023/05/31 07:30:52;;;;;;;2.87;1.17;;;;;;;;;;5013750;28;59055;-64
2023/05/31 07:33:17;;;;;;;0.87;0.77;;;;;;;;;;5018334;28;59473;-65
2023/05/31 07:35:43;;;;;;;1.23;1.00;;;;;;;;;;5016448;28;59278;-64
2023/05/31 07:38:08;;;;;;;1.83;0.77;;;;;;;;;;5015017;28;60235;-64
2023/05/31 07:40:33;;;;;;;1.50;0.80;;;;;;;;;;5016676;28;59430;-65
2023/05/31 07:42:58;;;;;;;2.30;1.23;;;;;;;;;;5016712;28;59510;-63
2023/05/31 07:45:23;;;;;;;1.20;1.07;;;;;;;;;;5014803;28;59303;-65
2023/05/31 07:47:49;;;;;;;2.07;0.90;;;;;;;;;;5014706;27;59525;-65
2023/05/31 07:50:14;;;;;;;1.30;1.20;;;;;;;;;;5017796;28;59448;-65
2023/05/31 07:52:39;;;;;;;1.50;1.00;;;;;;;;;;5014381;28;59608;-65
2023/05/31 07:55:04;;;;;;;3.63;1.30;;;;;;;;;;5015495;28;59273;-65
2023/05/31 07:57:29;;;;;;;2.55;1.20;;;;;;;;;;5017590;28;59561;-65
2023/05/31 07:59:55;;;;;;;3.03;1.58;;;;;;;;;;5018700;28;59186;-65
2023/05/31 08:02:20;;;;;;;1.40;1.17;;;;;;;;;;5014812;28;59263;-65
2023/05/31 08:04:45;;;;;;;1.47;1.03;;;;;;;;;;5021801;28;59339;-65
2023/05/31 08:07:10;;;;;;;1.30;0.83;;;;;;;;;;5018281;28;58623;-63
2023/05/31 08:09:35;;;;;;;1.83;1.10;;;;;;;;;;5016581;28;59297;-65
2023/05/31 08:12:02;;;;;;;1.10;1.00;;;;;;;;;;5010817;28;60918;-64
2023/05/31 08:14:27;;;;;;;1.05;0.80;;;;;;;;;;5016626;28;59148;-65
2023/05/31 08:16:53;;;;;;;0.77;0.68;;;;;;;;;;5018925;28;59006;-65
2023/05/31 08:19:18;;;;;;;1.30;1.20;;;;;;;;;;5015939;28;59513;-65
2023/05/31 08:21:45;;;;;;;1.02;0.93;;;;;;;;;;5020248;28;59286;-65
2023/05/31 08:24:10;;;;;;;1.90;0.85;;;;;;;;;;5018742;28;60236;-65
2023/05/31 08:26:35;;;;;;;2.92;1.45;;;;;;;;;;5020341;28;59519;-65
2023/05/31 08:29:01;;;;;;;2.37;0.90;;;;;;;;;;5021031;28;59155;-65
2023/05/31 08:31:26;;;;;;;1.10;0.98;;;;;;;;;;5019891;28;59349;-65
2023/05/31 08:33:57;;;;;;;2.27;1.20;;;;;;;;;;5015487;28;59270;-65
2023/05/31 08:36:22;;;;;;;1.70;1.10;;;;;;;;;;5018589;28;59161;-64
2023/05/31 08:38:48;;;;;;;3.05;1.08;;;;;;;;;;5018687;28;59384;-65
2023/05/31 08:41:13;;;;;;;1.20;0.80;;;;;;;;;;5016320;28;59640;-65
2023/05/31 08:43:39;;;;;;;1.53;1.00;;;;;;;;;;5019592;28;59621;-65
2023/05/31 08:46:05;;;;;;;1.52;0.80;;;;;;;;;;5016232;28;59933;-66
2023/05/31 08:48:35;;;;;;;1.35;0.80;;;;;;;;;;5018116;28;59101;-63
2023/05/31 08:51:01;;;;;;;1.88;1.30;;;;;;;;;;5015828;28;59993;-65
2023/05/31 08:53:26;;;;;;;0.90;0.90;;;;;;;;;;5016505;28;59171;-65
2023/05/31 08:55:54;;;;;;;0.97;0.90;;;;;;;;;;5021039;28;59168;-65
2023/05/31 08:58:20;;;;;;;1.98;0.77;;;;;;;;;;5018799;28;59208;-65
2023/05/31 09:00:46;;;;;;;0.93;0.80;;;;;;;;;;5019249;28;59676;-65
2023/05/31 09:03:11;;;;;;;0.93;0.70;;;;;;;;;;5017701;28;59459;-65
2023/05/31 09:05:36;;;;;;;1.00;0.73;;;;;;;;;;5017440;28;58543;-66
2023/05/31 09:08:02;;;;;;;1.13;1.03;;;;;;;;;;5022403;28;59623;-66
2023/05/31 09:10:28;;;;;;;1.05;0.93;;;;;;;;;;5013001;28;59727;-65
2023/05/31 09:12:53;;;;;;;1.23;0.80;;;;;;;;;;5013663;28;59540;-65
2023/05/31 09:15:21;;;;;;;0.63;0.60;;;;;;;;;;5019150;28;59220;-64
2023/05/31 09:17:46;;;;;;;1.23;0.80;;;;;;;;;;5015707;28;59387;-65
2023/05/31 09:20:12;;;;;;;1.63;0.80;;;;;;;;;;5017207;28;59335;-65
2023/05/31 09:22:37;;;;;;;1.25;1.15;;;;;;;;;;5018186;28;59331;-61
2023/05/31 09:25:03;;;;;;;0.90;0.73;;;;;;;;;;5013151;28;59142;-65
2023/05/31 09:27:38;;;;;;;2.03;1.00;;;;;;;;;;5020356;28;59017;-65
2023/05/31 09:30:11;;;;;;;1.60;1.20;;;;;;;;;;5017114;28;59296;-64
2023/05/31 09:32:36;;;;;;;1.05;0.82;;;;;;;;;;5013197;28;59308;-65
2023/05/31 09:35:12;;;;;;;1.48;1.00;;;;;;;;;;5016563;28;59147;-65
2023/05/31 09:37:42;;;;;;;1.98;1.10;;;;;;;;;;5012315;28;60995;-65
2023/05/31 09:40:07;;;;;;;1.63;1.10;;;;;;;;;;5018198;28;59251;-65
2023/05/31 09:42:32;;;;;;;1.83;1.20;;;;;;;;;;5019789;28;59116;-62
2023/05/31 09:44:59;;;;;;;1.08;0.75;;;;;;;;;;5014836;28;59305;-65
2023/05/31 09:47:27;;;;;;;1.63;0.88;;;;;;;;;;5015296;28;59138;-65
2023/05/31 09:49:52;;;;;;;;;;;;;;;;;;5015796;28;60835;-64
2023/05/31 09:52:21;;;;;;;1.95;1.70;;;;;;;;;;5017403;28;59139;-65
2023/05/31 09:54:46;;;;;;;1.55;0.95;;;;;;;;;;5018936;28;59227;-65
2023/05/31 09:57:30;;;;;;;0.95;0.82;;;;;;;;;;5012069;28;61855;-65
2023/05/31 09:59:56;;;;;;;2.03;1.02;;;;;;;;;;5016996;28;59295;-65
2023/05/31 10:02:21;;;;;;;1.63;1.02;;;;;;;;;;5018132;28;59136;-65
2023/05/31 10:04:47;;;;;;;1.23;1.00;;;;;;;;;;5020111;28;59052;-65
2023/05/31 10:07:13;;;;;;;1.45;0.80;;;;;;;;;;5014541;28;59319;-62
2023/05/31 10:09:38;;;;;;;1.92;1.13;;;;;;;;;;5018217;28;58645;-64
2023/05/31 10:12:03;;;;;;;1.77;0.93;;;;;;;;;;5014757;28;59603;-64
2023/05/31 10:14:29;;;;;;;1.52;1.08;;;;;;;;;;5019155;28;59293;-65
2023/05/31 10:16:55;;;;;;;0.98;0.93;;;;;;;;;;5017871;28;59696;-65
2023/05/31 10:19:27;;;;;;;1.20;1.10;;;;;;;;;;5016012;28;59279;-65
2023/05/31 10:21:53;;;;;;;2.63;0.82;;;;;;;;;;5019553;28;59297;-64
2023/05/31 10:24:48;;;;;;;2.55;1.83;;;;;;;;;;5015637;28;60357;-65
2023/05/31 10:27:36;;;;;;;1.00;0.90;;;;;;;;;;5008058;28;59346;-65
2023/05/31 10:30:05;;;;;;;2.55;0.77;;;;;;;;;;5010502;28;58858;-65
2023/05/31 10:32:36;;;;;;;0.98;0.60;;;;;;;;;;5017728;28;59940;-64
2023/05/31 10:35:02;;;;;;;1.40;0.93;;;;;;;;;;5014602;28;58998;-65
2023/05/31 10:37:27;;;;;;;0.93;0.82;;;;;;;;;;5019024;28;61849;-65
2023/05/31 10:40:01;;;;;;;1.25;0.93;;;;;;;;;;5017137;28;59105;-65
2023/05/31 10:42:35;;;;;;;0.68;0.63;;;;;;;;;;5021667;28;59408;-64
2023/05/31 10:45:03;;;;;;;0.98;0.85;;;;;;;;;;5020580;28;60002;-63
2023/05/31 10:47:29;;;;;;;;;;;;;;;;;;5018752;28;59293;-64
2023/05/31 10:49:55;;;;;;;1.00;0.90;;;;;;;;;;5017143;28;59383;-64
2023/05/31 10:52:20;;;;;;;1.42;0.90;;;;;;;;;;5013332;28;59530;-64
2023/05/31 10:54:46;;;;;;;1.98;0.80;;;;;;;;;;5023843;28;59319;-66
2023/05/31 10:57:11;;;;;;;0.68;0.68;;;;;;;;;;5019091;28;59723;-65
2023/05/31 10:59:42;;;;;;;1.90;0.60;;;;;;;;;;5016372;28;59352;-65
2023/05/31 11:02:08;;;;;;;0.70;0.70;;;;;;;;;;5015893;28;59005;-65
2023/05/31 11:04:33;;;;;;;1.27;0.70;;;;;;;;;;5022105;28;59584;-65
2023/05/31 11:07:15;;;;;;;1.13;0.90;;;;;;;;;;5015533;28;59184;-63
2023/05/31 11:09:42;;;;;;;2.47;0.75;;;;;;;;;;5019221;28;59615;-63
2023/05/31 11:12:11;;;;;;;1.55;0.88;;;;;;;;;;5014019;28;59188;-65
2023/05/31 11:14:36;;;;;;;1.30;0.85;;;;;;;;;;5013863;28;59140;-65
2023/05/31 11:17:06;;;;;;;0.57;0.57;;;;;;;;;;5012117;28;59494;-64
2023/05/31 11:19:34;;;;;;;1.35;1.00;;;;;;;;;;5016481;28;59325;-65
2023/05/31 11:22:07;;;;;;;0.63;0.45;;;;;;;;;;5019590;28;59385;-66
2023/05/31 11:24:39;;;;;;;0.95;0.77;;;;;;;;;;5018444;28;59991;-65
2023/05/31 11:27:06;;;;;;;0.85;0.82;;;;;;;;;;5010745;28;59687;-64
2023/05/31 11:29:47;;;;;;;0.50;0.50;;;;;;;;;;5017015;28;59222;-65
2023/05/31 11:32:12;;;;;;;0.75;0.50;;;;;;;;;;5021540;28;59840;-65
2023/05/31 11:34:54;;;;;;;0.50;0.50;;;;;;;;;;5013117;28;59100;-65
2023/05/31 11:37:26;;;;;;;2.15;1.17;;;;;;;;;;5014643;28;59450;-65
2023/05/31 11:39:53;;;;;;;1.15;0.75;;;;;;;;;;5017522;28;59178;-65
2023/05/31 11:42:18;;;;;;;0.73;0.73;;;;;;;;;;5019151;28;59506;-65
2023/05/31 11:44:44;;;;;;;0.70;0.50;;;;;;;;;;5014406;28;61968;-65
2023/05/31 11:47:10;;;;;;;0.80;0.57;;;;;;;;;;5017999;28;59366;-64
2023/05/31 11:49:36;;;;;;;0.60;0.57;;;;;;;;;;5016945;28;58998;-65
2023/05/31 11:52:01;;;;;;;0.65;0.40;;;;;;;;;;5018607;28;59992;-65
2023/05/31 11:54:29;;;;;;;0.85;0.80;;;;;;;;;;5018784;28;59096;-64
2023/05/31 11:56:55;;;;;;;0.83;0.80;;;;;;;;;;5015049;28;59463;-61
2023/05/31 11:59:21;;;;;;;0.63;0.63;;;;;;;;;;5015348;28;59371;-64
2023/05/31 12:01:46;;;;;;;3.10;0.73;;;;;;;;;;5017381;28;59267;-66
2023/05/31 12:04:11;;;;;;;1.55;0.70;;;;;;;;;;5019580;28;59697;-67
2023/05/31 12:06:36;;;;;;;10.68;1.90;;;;;;;;;;5017808;28;59429;-61
2023/05/31 12:09:02;;;;;;;11.07;1.37;;;;;;;;;;5017373;28;59350;-67
2023/05/31 12:11:28;;;;;;;8.38;2.22;;;;;;;;;;5014073;28;59519;-67
2023/05/31 12:13:54;;;;;;;5.32;1.13;;;;;;;;;;5019365;28;59413;-67
2023/05/31 12:16:20;;;;;;;9.70;1.17;;;;;;;;;;5026662;28;59233;-67
2023/05/31 12:18:47;;;;;;;7.90;1.65;;;;;;;;;;5016198;28;59700;-65
2023/05/31 12:21:15;;;;;;;5.85;1.05;;;;;;;;;;5019666;28;59196;-66
2023/05/31 12:23:40;;;;;;;;;;;;;;;;;;5022314;28;59295;-64
2023/05/31 12:26:05;;;;;;;8.48;2.30;;;;;;;;;;5019532;28;59555;-66
2023/05/31 12:28:31;;;;;;;1.33;0.97;;;;;;;;;;5016510;28;59415;-66
2023/05/31 12:30:56;;;;;;;7.72;1.20;;;;;;;;;;5017212;28;59317;-67
2023/05/31 12:33:21;;;;;;;3.35;1.17;;;;;;;;;;5013359;28;59450;-66
2023/05/31 12:35:47;;;;;;;3.50;1.10;;;;;;;;;;5020868;28;59283;-66
2023/05/31 12:38:12;;;;;;;4.82;1.38;;;;;;;;;;5015950;28;59188;-65
2023/05/31 12:40:40;;;;;;;3.63;1.10;;;;;;;;;;5021168;28;59316;-67
2023/05/31 12:43:06;;;;;;;2.72;0.90;;;;;;;;;;5017743;28;60848;-68
2023/05/31 12:45:31;;;;;;;2.38;0.98;;;;;;;;;;5017859;28;59156;-66
2023/05/31 12:47:57;;;;;;;2.50;1.00;;;;;;;;;;5013264;28;59570;-64
2023/05/31 12:50:22;;;;;;;3.47;1.10;;;;;;;;;;5017814;28;59104;-67
2023/05/31 12:52:54;;;;;;;3.27;1.30;;;;;;;;;;5014660;28;60398;-67
2023/05/31 12:55:19;;;;;;;2.45;1.08;;;;;;;;;;5022550;28;59241;-64
2023/05/31 12:57:44;;;;;;;3.90;1.10;;;;;;;;;;5017628;28;59450;-65
2023/05/31 13:00:11;;;;;;;2.27;0.87;;;;;;;;;;5014213;28;59487;-66
2023/05/31 13:02:37;;;;;;;2.05;0.82;;;;;;;;;;5012997;28;59392;-65
2023/05/31 13:05:03;;;;;;;1.48;0.52;;;;;;;;;;5017372;28;59550;-66
2023/05/31 13:07:28;;;;;;;2.15;1.27;;;;;;;;;;5016036;28;59287;-65
2023/05/31 13:09:53;;;;;;;1.10;0.50;;;;;;;;;;5015481;28;59206;-65
2023/05/31 13:12:20;;;;;;;2.65;1.08;;;;;;;;;;5012260;28;59224;-65
2023/05/31 13:14:46;;;;;;;2.38;0.82;;;;;;;;;;5011404;28;59314;-67
2023/05/31 13:17:11;;;;;;;3.78;1.05;;;;;;;;;;5014451;28;59640;-67
2023/05/31 13:19:36;;;;;;;2.83;0.63;;;;;;;;;;5016418;28;59456;-66
2023/05/31 13:22:02;;;;;;;0.77;0.77;;;;;;;;;;5017802;28;59225;-65
2023/05/31 13:24:27;;;;;;;1.27;1.10;;;;;;;;;;5015923;28;59573;-66
2023/05/31 13:26:52;;;;;;;1.20;0.50;;;;;;;;;;5014386;28;59497;-64
2023/05/31 13:29:17;;;;;;;2.00;0.70;;;;;;;;;;5013546;28;59117;-66
2023/05/31 13:31:43;;;;;;;3.73;1.27;;;;;;;;;;5017002;28;59526;-65
2023/05/31 13:34:08;;;;;;;0.77;0.77;;;;;;;;;;5017709;28;59552;-66
2023/05/31 13:36:34;;;;;;;1.63;0.85;;;;;;;;;;5012224;28;59201;-66
2023/05/31 13:38:59;;;;;;;1.20;1.02;;;;;;;;;;5017492;28;59622;-66
2023/05/31 13:41:24;;;;;;;1.33;0.63;;;;;;;;;;5020830;28;59466;-66
2023/05/31 13:43:49;;;;;;;4.72;0.60;;;;;;;;;;5010060;28;59587;-66
2023/05/31 13:46:15;;;;;;;2.20;0.97;;;;;;;;;;5012746;28;59180;-63
2023/05/31 13:48:40;;;;;;;0.50;0.50;;;;;;;;;;5015362;28;59211;-67
2023/05/31 13:51:06;;;;;;;0.47;0.40;;;;;;;;;;5021926;28;59517;-66
2023/05/31 13:53:31;;;;;;;1.95;0.77;;;;;;;;;;5019009;28;59373;-67
2023/05/31 13:55:59;;;;;;;0.85;0.75;;;;;;;;;;5020763;28;59746;-66
2023/05/31 13:58:25;;;;;;;0.57;0.45;;;;;;;;;;5013985;28;59254;-66
2023/05/31 14:00:50;;;;;;;1.27;0.80;;;;;;;;;;5020969;28;58746;-65
2023/05/31 14:03:16;;;;;;;1.50;0.82;;;;;;;;;;5019487;28;61627;-66
2023/05/31 14:05:41;;;;;;;1.65;0.40;;;;;;;;;;5017277;28;59559;-64
2023/05/31 14:08:06;;;;;;;3.80;1.55;;;;;;;;;;5018168;28;59874;-62
2023/05/31 14:10:32;;;;;;;1.50;0.63;;;;;;;;;;5023909;28;59538;-67
2023/05/31 14:12:57;;;;;;;0.75;0.60;;;;;;;;;;5020509;28;59220;-67
2023/05/31 14:15:22;;;;;;;0.83;0.33;;;;;;;;;;5024340;28;59791;-65
2023/05/31 14:17:47;;;;;;;0.70;0.50;;;;;;;;;;5021117;28;59383;-63
2023/05/31 14:20:12;;;;;;;1.08;0.63;;;;;;;;;;5024657;28;59335;-64
2023/05/31 14:22:37;;;;;;;1.37;0.90;;;;;;;;;;5020593;28;59540;-65
2023/05/31 14:25:03;;;;;;;1.00;0.80;;;;;;;;;;5021872;28;59559;-65
2023/05/31 14:27:28;;;;;;;0.82;0.60;;;;;;;;;;5019732;28;59537;-64
2023/05/31 14:29:53;;;;;;;0.60;0.30;;;;;;;;;;5024276;28;59246;-64
2023/05/31 14:32:19;;;;;;;1.08;0.63;;;;;;;;;;5023170;28;59373;-65
2023/05/31 14:34:44;;;;;;;0.87;0.80;;;;;;;;;;5024757;28;59556;-65
2023/05/31 14:37:10;;;;;;;0.70;0.50;;;;;;;;;;5023354;28;59353;-66
2023/05/31 14:39:35;;;;;;;3.80;1.23;;;;;;;;;;5024490;28;58958;-65